sensor_id;sensor_type;location;lat;lon;timestamp;P1;durP1;ratioP1;P2;durP2;ratioP2
42384;SDS011;28042;43.986;22.860;2023-03-11T00:00:55;82.75;;;45.60;;
42384;SDS011;28042;43.986;22.860;2023-03-11T00:03:21;83.25;;;47.90;;
42384;SDS011;28042;43.986;22.860;2023-03-11T00:05:47;81.50;;;47.58;;
42384;SDS011;28042;43.986;22.860;2023-03-11T00:08:14;84.20;;;47.50;;
42384;SDS011;28042;43.986;22.860;2023-03-11T00:10:42;77.75;;;46.08;;
42384;SDS011;28042;43.986;22.860;2023-03-11T00:13:10;74.68;;;43.88;;
42384;SDS011;28042;43.986;22.860;2023-03-11T00:15:37;75.40;;;44.50;;
42384;SDS011;28042;43.986;22.860;2023-03-11T00:18:04;75.10;;;44.17;;
42384;SDS011;28042;43.986;22.860;2023-03-11T00:20:34;73.20;;;43.53;;
42384;SDS011;28042;43.986;22.860;2023-03-11T00:23:01;68.32;;;41.88;;
42384;SDS011;28042;43.986;22.860;2023-03-11T00:25:28;76.40;;;44.53;;
42384;SDS011;28042;43.986;22.860;2023-03-11T00:27:55;67.75;;;42.42;;
42384;SDS011;28042;43.986;22.860;2023-03-11T00:30:21;61.38;;;38.65;;
42384;SDS011;28042;43.986;22.860;2023-03-11T00:32:47;61.53;;;36.60;;
42384;SDS011;28042;43.986;22.860;2023-03-11T00:35:18;56.72;;;36.78;;
42384;SDS011;28042;43.986;22.860;2023-03-11T00:37:47;57.13;;;37.13;;
42384;SDS011;28042;43.986;22.860;2023-03-11T00:40:17;56.10;;;34.92;;
42384;SDS011;28042;43.986;22.860;2023-03-11T00:42:44;57.08;;;34.72;;
42384;SDS011;28042;43.986;22.860;2023-03-11T00:45:10;56.72;;;35.10;;
42384;SDS011;28042;43.986;22.860;2023-03-11T00:47:36;56.03;;;33.17;;
42384;SDS011;28042;43.986;22.860;2023-03-11T00:50:01;58.28;;;33.63;;
42384;SDS011;28042;43.986;22.860;2023-03-11T00:52:27;66.55;;;36.95;;
42384;SDS011;28042;43.986;22.860;2023-03-11T00:54:53;65.32;;;36.83;;
42384;SDS011;28042;43.986;22.860;2023-03-11T00:57:19;58.72;;;35.03;;
42384;SDS011;28042;43.986;22.860;2023-03-11T00:59:45;59.03;;;35.83;;
42384;SDS011;28042;43.986;22.860;2023-03-11T01:02:10;54.30;;;34.33;;
42384;SDS011;28042;43.986;22.860;2023-03-11T01:04:36;69.78;;;37.33;;
42384;SDS011;28042;43.986;22.860;2023-03-11T01:07:01;65.95;;;37.15;;
42384;SDS011;28042;43.986;22.860;2023-03-11T01:09:27;68.50;;;38.65;;
42384;SDS011;28042;43.986;22.860;2023-03-11T01:11:53;72.80;;;37.45;;
42384;SDS011;28042;43.986;22.860;2023-03-11T01:14:18;68.63;;;36.20;;
42384;SDS011;28042;43.986;22.860;2023-03-11T01:16:44;69.18;;;34.90;;
42384;SDS011;28042;43.986;22.860;2023-03-11T01:19:10;61.60;;;34.65;;
42384;SDS011;28042;43.986;22.860;2023-03-11T01:21:36;70.60;;;36.47;;
42384;SDS011;28042;43.986;22.860;2023-03-11T01:24:01;70.13;;;38.33;;
42384;SDS011;28042;43.986;22.860;2023-03-11T01:26:27;77.38;;;41.15;;
42384;SDS011;28042;43.986;22.860;2023-03-11T01:28:53;71.03;;;37.00;;
42384;SDS011;28042;43.986;22.860;2023-03-11T01:31:18;76.43;;;37.90;;
42384;SDS011;28042;43.986;22.860;2023-03-11T01:33:43;81.82;;;39.35;;
42384;SDS011;28042;43.986;22.860;2023-03-11T01:36:09;66.45;;;38.45;;
42384;SDS011;28042;43.986;22.860;2023-03-11T01:38:34;78.25;;;40.50;;
42384;SDS011;28042;43.986;22.860;2023-03-11T01:41:00;66.88;;;37.20;;
42384;SDS011;28042;43.986;22.860;2023-03-11T01:46:11;77.65;;;38.88;;
42384;SDS011;28042;43.986;22.860;2023-03-11T01:51:03;68.78;;;35.97;;
42384;SDS011;28042;43.986;22.860;2023-03-11T01:53:30;73.13;;;39.45;;
42384;SDS011;28042;43.986;22.860;2023-03-11T01:55:56;64.18;;;36.88;;
42384;SDS011;28042;43.986;22.860;2023-03-11T01:58:26;62.15;;;34.97;;
42384;SDS011;28042;43.986;22.860;2023-03-11T02:00:54;70.45;;;39.20;;
42384;SDS011;28042;43.986;22.860;2023-03-11T02:03:23;85.28;;;43.63;;
42384;SDS011;28042;43.986;22.860;2023-03-11T02:05:53;94.15;;;49.03;;
42384;SDS011;28042;43.986;22.860;2023-03-11T02:08:21;113.78;;;54.67;;
42384;SDS011;28042;43.986;22.860;2023-03-11T02:10:47;107.43;;;52.15;;
42384;SDS011;28042;43.986;22.860;2023-03-11T02:13:16;94.35;;;46.97;;
42384;SDS011;28042;43.986;22.860;2023-03-11T02:15:42;84.10;;;44.55;;
42384;SDS011;28042;43.986;22.860;2023-03-11T02:18:08;79.88;;;42.33;;
42384;SDS011;28042;43.986;22.860;2023-03-11T02:23:23;33.95;;;23.90;;
42384;SDS011;28042;43.986;22.860;2023-03-11T02:25:59;40.63;;;24.85;;
42384;SDS011;28042;43.986;22.860;2023-03-11T02:28:37;23.23;;;16.85;;
42384;SDS011;28042;43.986;22.860;2023-03-11T02:31:04;23.15;;;15.68;;
42384;SDS011;28042;43.986;22.860;2023-03-11T02:33:31;12.15;;;8.88;;
42384;SDS011;28042;43.986;22.860;2023-03-11T02:35:59;12.50;;;8.60;;
42384;SDS011;28042;43.986;22.860;2023-03-11T02:38:24;9.38;;;6.28;;
42384;SDS011;28042;43.986;22.860;2023-03-11T02:43:42;7.18;;;4.70;;
42384;SDS011;28042;43.986;22.860;2023-03-11T02:46:09;4.38;;;2.70;;
42384;SDS011;28042;43.986;22.860;2023-03-11T02:48:36;4.15;;;2.40;;
42384;SDS011;28042;43.986;22.860;2023-03-11T02:51:03;4.70;;;2.30;;
42384;SDS011;28042;43.986;22.860;2023-03-11T02:53:29;4.78;;;2.60;;
42384;SDS011;28042;43.986;22.860;2023-03-11T02:55:58;4.07;;;2.30;;
42384;SDS011;28042;43.986;22.860;2023-03-11T02:58:24;3.65;;;2.45;;
42384;SDS011;28042;43.986;22.860;2023-03-11T03:00:49;3.25;;;1.95;;
42384;SDS011;28042;43.986;22.860;2023-03-11T03:03:15;5.32;;;2.30;;
42384;SDS011;28042;43.986;22.860;2023-03-11T03:05:40;5.25;;;1.90;;
42384;SDS011;28042;43.986;22.860;2023-03-11T03:08:06;3.92;;;2.22;;
42384;SDS011;28042;43.986;22.860;2023-03-11T03:10:31;4.20;;;1.65;;
42384;SDS011;28042;43.986;22.860;2023-03-11T03:12:57;3.70;;;1.70;;
42384;SDS011;28042;43.986;22.860;2023-03-11T03:15:22;2.72;;;1.80;;
42384;SDS011;28042;43.986;22.860;2023-03-11T03:17:48;4.18;;;2.08;;
42384;SDS011;28042;43.986;22.860;2023-03-11T03:20:15;3.30;;;2.03;;
42384;SDS011;28042;43.986;22.860;2023-03-11T03:22:42;2.55;;;2.00;;
42384;SDS011;28042;43.986;22.860;2023-03-11T03:25:08;2.83;;;1.92;;
42384;SDS011;28042;43.986;22.860;2023-03-11T03:27:35;2.37;;;1.67;;
42384;SDS011;28042;43.986;22.860;2023-03-11T03:30:00;2.22;;;1.70;;
42384;SDS011;28042;43.986;22.860;2023-03-11T03:32:27;2.75;;;1.58;;
42384;SDS011;28042;43.986;22.860;2023-03-11T03:34:52;1.60;;;1.40;;
42384;SDS011;28042;43.986;22.860;2023-03-11T03:37:23;1.95;;;1.50;;
42384;SDS011;28042;43.986;22.860;2023-03-11T03:39:51;2.47;;;1.40;;
42384;SDS011;28042;43.986;22.860;2023-03-11T03:42:17;3.38;;;1.83;;
42384;SDS011;28042;43.986;22.860;2023-03-11T03:44:43;2.65;;;1.80;;
42384;SDS011;28042;43.986;22.860;2023-03-11T03:47:09;3.28;;;1.77;;
42384;SDS011;28042;43.986;22.860;2023-03-11T03:49:35;5.35;;;2.50;;
42384;SDS011;28042;43.986;22.860;2023-03-11T03:52:03;4.60;;;2.45;;
42384;SDS011;28042;43.986;22.860;2023-03-11T03:54:29;4.72;;;2.35;;
42384;SDS011;28042;43.986;22.860;2023-03-11T03:56:55;2.97;;;1.80;;
42384;SDS011;28042;43.986;22.860;2023-03-11T03:59:22;3.87;;;1.90;;
42384;SDS011;28042;43.986;22.860;2023-03-11T04:01:47;4.00;;;2.08;;
42384;SDS011;28042;43.986;22.860;2023-03-11T04:04:12;3.05;;;2.25;;
42384;SDS011;28042;43.986;22.860;2023-03-11T04:06:38;3.08;;;2.05;;
42384;SDS011;28042;43.986;22.860;2023-03-11T04:09:03;4.22;;;2.10;;
42384;SDS011;28042;43.986;22.860;2023-03-11T04:11:30;4.35;;;2.38;;
42384;SDS011;28042;43.986;22.860;2023-03-11T04:13:56;4.90;;;2.30;;
42384;SDS011;28042;43.986;22.860;2023-03-11T04:16:22;2.97;;;2.20;;
42384;SDS011;28042;43.986;22.860;2023-03-11T04:18:48;7.25;;;6.03;;
42384;SDS011;28042;43.986;22.860;2023-03-11T04:21:14;7.38;;;5.43;;
42384;SDS011;28042;43.986;22.860;2023-03-11T04:23:40;9.27;;;4.38;;
42384;SDS011;28042;43.986;22.860;2023-03-11T04:26:06;8.82;;;4.63;;
42384;SDS011;28042;43.986;22.860;2023-03-11T04:28:31;7.43;;;4.10;;
42384;SDS011;28042;43.986;22.860;2023-03-11T04:30:57;7.80;;;4.50;;
42384;SDS011;28042;43.986;22.860;2023-03-11T04:33:22;7.20;;;3.63;;
42384;SDS011;28042;43.986;22.860;2023-03-11T04:35:48;5.80;;;3.47;;
42384;SDS011;28042;43.986;22.860;2023-03-11T04:38:14;4.70;;;3.17;;
42384;SDS011;28042;43.986;22.860;2023-03-11T04:40:39;5.05;;;3.10;;
42384;SDS011;28042;43.986;22.860;2023-03-11T04:43:05;5.72;;;3.33;;
42384;SDS011;28042;43.986;22.860;2023-03-11T04:45:30;8.23;;;3.55;;
42384;SDS011;28042;43.986;22.860;2023-03-11T04:47:56;6.95;;;4.18;;
42384;SDS011;28042;43.986;22.860;2023-03-11T04:50:22;7.03;;;4.20;;
42384;SDS011;28042;43.986;22.860;2023-03-11T04:52:47;8.13;;;5.13;;
42384;SDS011;28042;43.986;22.860;2023-03-11T04:55:13;7.70;;;5.30;;
42384;SDS011;28042;43.986;22.860;2023-03-11T04:57:40;11.27;;;5.97;;
42384;SDS011;28042;43.986;22.860;2023-03-11T05:00:06;8.35;;;6.30;;
42384;SDS011;28042;43.986;22.860;2023-03-11T05:02:35;11.38;;;6.63;;
42384;SDS011;28042;43.986;22.860;2023-03-11T05:05:00;9.07;;;5.68;;
42384;SDS011;28042;43.986;22.860;2023-03-11T05:07:26;6.93;;;3.65;;
42384;SDS011;28042;43.986;22.860;2023-03-11T05:09:51;8.48;;;3.85;;
42384;SDS011;28042;43.986;22.860;2023-03-11T05:12:17;7.25;;;3.30;;
42384;SDS011;28042;43.986;22.860;2023-03-11T05:14:42;9.15;;;2.53;;
42384;SDS011;28042;43.986;22.860;2023-03-11T05:17:08;4.97;;;2.35;;
42384;SDS011;28042;43.986;22.860;2023-03-11T05:19:36;5.07;;;2.80;;
42384;SDS011;28042;43.986;22.860;2023-03-11T05:22:02;8.05;;;3.50;;
42384;SDS011;28042;43.986;22.860;2023-03-11T05:24:28;5.53;;;3.50;;
42384;SDS011;28042;43.986;22.860;2023-03-11T05:26:54;6.75;;;3.33;;
42384;SDS011;28042;43.986;22.860;2023-03-11T05:29:20;4.53;;;3.08;;
42384;SDS011;28042;43.986;22.860;2023-03-11T05:31:46;5.65;;;3.38;;
42384;SDS011;28042;43.986;22.860;2023-03-11T05:34:12;10.07;;;4.40;;
42384;SDS011;28042;43.986;22.860;2023-03-11T05:36:38;13.10;;;5.78;;
42384;SDS011;28042;43.986;22.860;2023-03-11T05:39:04;12.48;;;5.85;;
42384;SDS011;28042;43.986;22.860;2023-03-11T05:41:29;10.80;;;5.90;;
42384;SDS011;28042;43.986;22.860;2023-03-11T05:43:55;9.52;;;5.55;;
42384;SDS011;28042;43.986;22.860;2023-03-11T05:46:20;8.85;;;5.65;;
42384;SDS011;28042;43.986;22.860;2023-03-11T05:48:46;6.72;;;5.03;;
42384;SDS011;28042;43.986;22.860;2023-03-11T05:51:11;7.93;;;5.10;;
42384;SDS011;28042;43.986;22.860;2023-03-11T05:53:37;8.23;;;4.88;;
42384;SDS011;28042;43.986;22.860;2023-03-11T05:56:06;6.38;;;4.80;;
42384;SDS011;28042;43.986;22.860;2023-03-11T05:58:31;5.50;;;3.70;;
42384;SDS011;28042;43.986;22.860;2023-03-11T06:00:57;6.03;;;3.22;;
42384;SDS011;28042;43.986;22.860;2023-03-11T06:03:25;5.00;;;3.40;;
42384;SDS011;28042;43.986;22.860;2023-03-11T06:05:51;6.80;;;3.25;;
42384;SDS011;28042;43.986;22.860;2023-03-11T06:08:17;4.60;;;2.70;;
42384;SDS011;28042;43.986;22.860;2023-03-11T06:10:43;5.93;;;3.33;;
42384;SDS011;28042;43.986;22.860;2023-03-11T06:13:09;8.27;;;4.20;;
42384;SDS011;28042;43.986;22.860;2023-03-11T06:15:35;5.60;;;4.10;;
42384;SDS011;28042;43.986;22.860;2023-03-11T06:18:02;6.57;;;3.30;;
42384;SDS011;28042;43.986;22.860;2023-03-11T06:20:28;7.47;;;3.90;;
42384;SDS011;28042;43.986;22.860;2023-03-11T06:22:54;6.43;;;3.10;;
42384;SDS011;28042;43.986;22.860;2023-03-11T06:25:19;4.85;;;3.03;;
42384;SDS011;28042;43.986;22.860;2023-03-11T06:27:49;6.68;;;3.17;;
42384;SDS011;28042;43.986;22.860;2023-03-11T06:30:16;5.68;;;2.78;;
42384;SDS011;28042;43.986;22.860;2023-03-11T06:32:43;5.32;;;3.13;;
42384;SDS011;28042;43.986;22.860;2023-03-11T06:35:09;7.32;;;4.50;;
42384;SDS011;28042;43.986;22.860;2023-03-11T06:37:35;8.60;;;4.60;;
42384;SDS011;28042;43.986;22.860;2023-03-11T06:40:01;7.57;;;4.75;;
42384;SDS011;28042;43.986;22.860;2023-03-11T06:42:29;5.25;;;3.67;;
42384;SDS011;28042;43.986;22.860;2023-03-11T06:44:54;9.68;;;4.80;;
42384;SDS011;28042;43.986;22.860;2023-03-11T06:47:20;10.00;;;6.15;;
42384;SDS011;28042;43.986;22.860;2023-03-11T06:49:45;11.68;;;7.30;;
42384;SDS011;28042;43.986;22.860;2023-03-11T06:52:11;11.93;;;6.38;;
42384;SDS011;28042;43.986;22.860;2023-03-11T06:54:36;12.00;;;6.60;;
42384;SDS011;28042;43.986;22.860;2023-03-11T06:57:02;10.75;;;6.45;;
42384;SDS011;28042;43.986;22.860;2023-03-11T06:59:27;10.35;;;6.10;;
42384;SDS011;28042;43.986;22.860;2023-03-11T07:01:53;5.25;;;3.28;;
42384;SDS011;28042;43.986;22.860;2023-03-11T07:04:19;6.53;;;4.18;;
42384;SDS011;28042;43.986;22.860;2023-03-11T07:06:45;7.28;;;3.90;;
42384;SDS011;28042;43.986;22.860;2023-03-11T07:09:11;8.13;;;3.97;;
42384;SDS011;28042;43.986;22.860;2023-03-11T07:11:36;9.07;;;4.57;;
42384;SDS011;28042;43.986;22.860;2023-03-11T07:14:02;9.30;;;5.30;;
42384;SDS011;28042;43.986;22.860;2023-03-11T07:16:28;7.30;;;3.50;;
42384;SDS011;28042;43.986;22.860;2023-03-11T07:18:58;2.90;;;1.92;;
42384;SDS011;28042;43.986;22.860;2023-03-11T07:21:27;6.03;;;2.00;;
42384;SDS011;28042;43.986;22.860;2023-03-11T07:23:55;3.00;;;1.98;;
42384;SDS011;28042;43.986;22.860;2023-03-11T07:26:22;8.32;;;3.20;;
42384;SDS011;28042;43.986;22.860;2023-03-11T07:28:48;4.80;;;2.65;;
42384;SDS011;28042;43.986;22.860;2023-03-11T07:31:15;3.75;;;1.67;;
42384;SDS011;28042;43.986;22.860;2023-03-11T07:33:42;3.47;;;1.90;;
42384;SDS011;28042;43.986;22.860;2023-03-11T07:36:09;3.10;;;1.73;;
42384;SDS011;28042;43.986;22.860;2023-03-11T07:38:36;3.70;;;1.52;;
42384;SDS011;28042;43.986;22.860;2023-03-11T07:41:02;3.45;;;1.48;;
42384;SDS011;28042;43.986;22.860;2023-03-11T07:43:29;3.72;;;1.80;;
42384;SDS011;28042;43.986;22.860;2023-03-11T07:48:48;4.22;;;2.17;;
42384;SDS011;28042;43.986;22.860;2023-03-11T07:51:16;5.07;;;2.00;;
42384;SDS011;28042;43.986;22.860;2023-03-11T07:53:44;4.47;;;2.40;;
42384;SDS011;28042;43.986;22.860;2023-03-11T07:56:10;6.20;;;2.50;;
42384;SDS011;28042;43.986;22.860;2023-03-11T07:58:37;3.35;;;2.60;;
42384;SDS011;28042;43.986;22.860;2023-03-11T08:01:16;5.07;;;2.90;;
42384;SDS011;28042;43.986;22.860;2023-03-11T08:03:47;5.47;;;3.63;;
42384;SDS011;28042;43.986;22.860;2023-03-11T08:06:17;8.77;;;5.65;;
42384;SDS011;28042;43.986;22.860;2023-03-11T08:08:44;3.38;;;2.40;;
42384;SDS011;28042;43.986;22.860;2023-03-11T08:11:10;6.15;;;4.18;;
42384;SDS011;28042;43.986;22.860;2023-03-11T08:13:40;5.82;;;3.35;;
42384;SDS011;28042;43.986;22.860;2023-03-11T08:16:08;5.40;;;3.28;;
42384;SDS011;28042;43.986;22.860;2023-03-11T08:18:35;3.92;;;3.08;;
42384;SDS011;28042;43.986;22.860;2023-03-11T08:21:04;5.93;;;3.80;;
42384;SDS011;28042;43.986;22.860;2023-03-11T08:23:30;8.45;;;3.97;;
42384;SDS011;28042;43.986;22.860;2023-03-11T08:25:56;6.72;;;4.03;;
42384;SDS011;28042;43.986;22.860;2023-03-11T08:28:21;4.35;;;3.47;;
42384;SDS011;28042;43.986;22.860;2023-03-11T08:30:47;4.97;;;3.42;;
42384;SDS011;28042;43.986;22.860;2023-03-11T08:33:12;5.43;;;3.35;;
42384;SDS011;28042;43.986;22.860;2023-03-11T08:35:38;4.90;;;3.28;;
42384;SDS011;28042;43.986;22.860;2023-03-11T08:38:03;5.68;;;3.50;;
42384;SDS011;28042;43.986;22.860;2023-03-11T08:40:29;4.72;;;3.15;;
42384;SDS011;28042;43.986;22.860;2023-03-11T08:42:55;4.50;;;2.85;;
42384;SDS011;28042;43.986;22.860;2023-03-11T08:45:20;4.50;;;3.13;;
42384;SDS011;28042;43.986;22.860;2023-03-11T08:47:46;3.50;;;2.30;;
42384;SDS011;28042;43.986;22.860;2023-03-11T08:50:13;4.82;;;2.78;;
42384;SDS011;28042;43.986;22.860;2023-03-11T08:52:40;3.65;;;2.50;;
42384;SDS011;28042;43.986;22.860;2023-03-11T08:55:06;3.78;;;2.08;;
42384;SDS011;28042;43.986;22.860;2023-03-11T08:57:33;4.70;;;1.40;;
42384;SDS011;28042;43.986;22.860;2023-03-11T08:59:59;2.75;;;1.90;;
42384;SDS011;28042;43.986;22.860;2023-03-11T09:02:24;4.15;;;2.30;;
42384;SDS011;28042;43.986;22.860;2023-03-11T09:04:51;2.25;;;1.88;;
42384;SDS011;28042;43.986;22.860;2023-03-11T09:07:16;2.60;;;1.60;;
42384;SDS011;28042;43.986;22.860;2023-03-11T09:09:42;3.65;;;1.73;;
42384;SDS011;28042;43.986;22.860;2023-03-11T09:12:08;3.97;;;1.60;;
42384;SDS011;28042;43.986;22.860;2023-03-11T09:14:38;2.85;;;1.65;;
42384;SDS011;28042;43.986;22.860;2023-03-11T09:17:07;2.03;;;1.63;;
42384;SDS011;28042;43.986;22.860;2023-03-11T09:19:34;3.03;;;1.38;;
42384;SDS011;28042;43.986;22.860;2023-03-11T09:22:01;2.57;;;1.63;;
42384;SDS011;28042;43.986;22.860;2023-03-11T09:24:28;4.05;;;2.00;;
42384;SDS011;28042;43.986;22.860;2023-03-11T09:26:53;2.35;;;1.00;;
42384;SDS011;28042;43.986;22.860;2023-03-11T09:29:19;1.40;;;1.00;;
42384;SDS011;28042;43.986;22.860;2023-03-11T09:31:45;1.38;;;1.02;;
42384;SDS011;28042;43.986;22.860;2023-03-11T09:34:11;5.13;;;1.70;;
42384;SDS011;28042;43.986;22.860;2023-03-11T09:36:39;4.38;;;1.45;;
42384;SDS011;28042;43.986;22.860;2023-03-11T09:39:05;8.63;;;6.70;;
42384;SDS011;28042;43.986;22.860;2023-03-11T09:44:07;2.63;;;1.80;;
42384;SDS011;28042;43.986;22.860;2023-03-11T09:51:57;2.80;;;0.93;;
42384;SDS011;28042;43.986;22.860;2023-03-11T09:54:31;4.30;;;1.50;;
42384;SDS011;28042;43.986;22.860;2023-03-11T09:57:02;4.05;;;1.10;;
42384;SDS011;28042;43.986;22.860;2023-03-11T09:59:30;1.77;;;1.10;;
42384;SDS011;28042;43.986;22.860;2023-03-11T10:01:57;3.38;;;1.77;;
42384;SDS011;28042;43.986;22.860;2023-03-11T10:06:56;2.25;;;1.00;;
42384;SDS011;28042;43.986;22.860;2023-03-11T10:09:42;3.58;;;1.40;;
42384;SDS011;28042;43.986;22.860;2023-03-11T10:14:50;2.05;;;1.10;;
42384;SDS011;28042;43.986;22.860;2023-03-11T10:25:15;0.95;;;0.88;;
42384;SDS011;28042;43.986;22.860;2023-03-11T10:27:51;1.55;;;1.02;;
42384;SDS011;28042;43.986;22.860;2023-03-11T10:33:00;4.22;;;1.00;;
42384;SDS011;28042;43.986;22.860;2023-03-11T10:35:38;1.88;;;1.00;;
42384;SDS011;28042;43.986;22.860;2023-03-11T10:38:18;1.83;;;1.02;;
42384;SDS011;28042;43.986;22.860;2023-03-11T10:40:54;4.15;;;0.98;;
42384;SDS011;28042;43.986;22.860;2023-03-11T10:45:54;2.25;;;1.60;;
42384;SDS011;28042;43.986;22.860;2023-03-11T10:48:20;1.67;;;1.17;;
42384;SDS011;28042;43.986;22.860;2023-03-11T10:50:49;1.85;;;1.02;;
42384;SDS011;28042;43.986;22.860;2023-03-11T10:53:33;2.28;;;1.52;;
42384;SDS011;28042;43.986;22.860;2023-03-11T10:56:21;1.60;;;1.20;;
42384;SDS011;28042;43.986;22.860;2023-03-11T10:58:52;2.45;;;1.30;;
42384;SDS011;28042;43.986;22.860;2023-03-11T11:01:18;2.90;;;1.38;;
42384;SDS011;28042;43.986;22.860;2023-03-11T11:03:49;4.22;;;1.50;;
42384;SDS011;28042;43.986;22.860;2023-03-11T11:06:34;4.07;;;2.05;;
42384;SDS011;28042;43.986;22.860;2023-03-11T11:09:20;7.93;;;2.17;;
42384;SDS011;28042;43.986;22.860;2023-03-11T11:17:19;2.97;;;1.80;;
42384;SDS011;28042;43.986;22.860;2023-03-11T11:19:48;2.50;;;1.42;;
42384;SDS011;28042;43.986;22.860;2023-03-11T11:22:17;5.22;;;2.75;;
42384;SDS011;28042;43.986;22.860;2023-03-11T11:24:45;4.55;;;2.38;;
42384;SDS011;28042;43.986;22.860;2023-03-11T11:29:41;3.72;;;1.90;;
42384;SDS011;28042;43.986;22.860;2023-03-11T11:34:39;6.53;;;2.47;;
42384;SDS011;28042;43.986;22.860;2023-03-11T11:37:05;4.28;;;2.83;;
42384;SDS011;28042;43.986;22.860;2023-03-11T11:39:48;3.58;;;2.55;;
42384;SDS011;28042;43.986;22.860;2023-03-11T11:42:20;3.30;;;2.13;;
42384;SDS011;28042;43.986;22.860;2023-03-11T11:44:52;5.25;;;1.88;;
42384;SDS011;28042;43.986;22.860;2023-03-11T11:47:29;3.35;;;1.85;;
42384;SDS011;28042;43.986;22.860;2023-03-11T11:50:00;8.73;;;2.00;;
42384;SDS011;28042;43.986;22.860;2023-03-11T11:52:51;4.63;;;2.22;;
42384;SDS011;28042;43.986;22.860;2023-03-11T11:55:22;4.00;;;1.70;;
42384;SDS011;28042;43.986;22.860;2023-03-11T11:57:53;15.05;;;4.03;;
42384;SDS011;28042;43.986;22.860;2023-03-11T12:00:19;2.40;;;1.35;;
42384;SDS011;28042;43.986;22.860;2023-03-11T12:05:32;2.83;;;1.80;;
42384;SDS011;28042;43.986;22.860;2023-03-11T12:08:16;3.97;;;1.65;;
42384;SDS011;28042;43.986;22.860;2023-03-11T12:10:53;8.02;;;2.35;;
42384;SDS011;28042;43.986;22.860;2023-03-11T12:16:02;5.68;;;1.27;;
42384;SDS011;28042;43.986;22.860;2023-03-11T12:27:26;1.23;;;0.90;;
42384;SDS011;28042;43.986;22.860;2023-03-11T12:29:59;1.75;;;1.35;;
42384;SDS011;28042;43.986;22.860;2023-03-11T12:34:53;2.40;;;1.00;;
42384;SDS011;28042;43.986;22.860;2023-03-11T12:37:20;5.55;;;1.40;;
42384;SDS011;28042;43.986;22.860;2023-03-11T12:39:47;8.77;;;1.83;;
42384;SDS011;28042;43.986;22.860;2023-03-11T12:42:13;3.38;;;1.10;;
42384;SDS011;28042;43.986;22.860;2023-03-11T12:44:41;3.65;;;1.10;;
42384;SDS011;28042;43.986;22.860;2023-03-11T12:52:00;1.77;;;0.70;;
42384;SDS011;28042;43.986;22.860;2023-03-11T12:54:35;2.33;;;0.68;;
42384;SDS011;28042;43.986;22.860;2023-03-11T13:17:54;1.17;;;0.57;;
42384;SDS011;28042;43.986;22.860;2023-03-11T13:25:39;3.42;;;1.15;;
42384;SDS011;28042;43.986;22.860;2023-03-11T13:28:30;4.20;;;1.10;;
42384;SDS011;28042;43.986;22.860;2023-03-11T13:33:54;2.50;;;0.60;;
42384;SDS011;28042;43.986;22.860;2023-03-11T13:41:21;13.45;;;0.80;;
42384;SDS011;28042;43.986;22.860;2023-03-11T13:43:54;1.65;;;0.65;;
42384;SDS011;28042;43.986;22.860;2023-03-11T13:46:35;5.50;;;1.00;;
42384;SDS011;28042;43.986;22.860;2023-03-11T13:49:06;2.72;;;0.50;;
42384;SDS011;28042;43.986;22.860;2023-03-11T13:51:48;5.03;;;0.77;;
42384;SDS011;28042;43.986;22.860;2023-03-11T13:56:44;4.07;;;0.70;;
42384;SDS011;28042;43.986;22.860;2023-03-11T13:59:16;4.80;;;1.10;;
42384;SDS011;28042;43.986;22.860;2023-03-11T14:01:52;2.75;;;1.27;;
42384;SDS011;28042;43.986;22.860;2023-03-11T14:04:24;2.28;;;0.70;;
42384;SDS011;28042;43.986;22.860;2023-03-11T14:06:52;1.70;;;1.00;;
42384;SDS011;28042;43.986;22.860;2023-03-11T14:09:18;6.13;;;0.80;;
42384;SDS011;28042;43.986;22.860;2023-03-11T14:11:45;1.70;;;0.82;;
42384;SDS011;28042;43.986;22.860;2023-03-11T14:17:04;2.97;;;1.17;;
42384;SDS011;28042;43.986;22.860;2023-03-11T14:19:36;1.92;;;0.60;;
42384;SDS011;28042;43.986;22.860;2023-03-11T14:22:06;3.17;;;0.75;;
42384;SDS011;28042;43.986;22.860;2023-03-11T14:24:32;0.47;;;0.47;;
42384;SDS011;28042;43.986;22.860;2023-03-11T14:26:58;1.95;;;0.70;;
42384;SDS011;28042;43.986;22.860;2023-03-11T14:29:31;1.83;;;0.60;;
42384;SDS011;28042;43.986;22.860;2023-03-11T14:31:59;0.80;;;0.50;;
42384;SDS011;28042;43.986;22.860;2023-03-11T14:34:26;1.08;;;0.60;;
42384;SDS011;28042;43.986;22.860;2023-03-11T14:36:54;1.10;;;0.60;;
42384;SDS011;28042;43.986;22.860;2023-03-11T14:39:31;2.97;;;0.68;;
42384;SDS011;28042;43.986;22.860;2023-03-11T14:50:24;1.42;;;1.13;;
42384;SDS011;28042;43.986;22.860;2023-03-11T14:55:26;0.98;;;0.57;;
42384;SDS011;28042;43.986;22.860;2023-03-11T15:00:47;2.00;;;0.60;;
42384;SDS011;28042;43.986;22.860;2023-03-11T15:03:25;1.55;;;0.82;;
42384;SDS011;28042;43.986;22.860;2023-03-11T15:06:14;1.90;;;0.80;;
42384;SDS011;28042;43.986;22.860;2023-03-11T15:09:04;1.17;;;0.50;;
42384;SDS011;28042;43.986;22.860;2023-03-11T15:11:30;0.63;;;0.50;;
42384;SDS011;28042;43.986;22.860;2023-03-11T15:14:16;3.60;;;0.80;;
42384;SDS011;28042;43.986;22.860;2023-03-11T15:16:45;1.10;;;0.70;;
42384;SDS011;28042;43.986;22.860;2023-03-11T15:21:51;7.25;;;4.85;;
42384;SDS011;28042;43.986;22.860;2023-03-11T15:24:22;6.63;;;4.22;;
42384;SDS011;28042;43.986;22.860;2023-03-11T15:26:54;2.35;;;1.48;;
42384;SDS011;28042;43.986;22.860;2023-03-11T15:29:28;3.50;;;0.77;;
42384;SDS011;28042;43.986;22.860;2023-03-11T15:34:28;1.35;;;0.82;;
42384;SDS011;28042;43.986;22.860;2023-03-11T15:37:02;2.88;;;1.63;;
42384;SDS011;28042;43.986;22.860;2023-03-11T15:42:00;4.60;;;1.90;;
42384;SDS011;28042;43.986;22.860;2023-03-11T15:44:30;6.82;;;2.10;;
42384;SDS011;28042;43.986;22.860;2023-03-11T15:46:56;5.57;;;2.22;;
42384;SDS011;28042;43.986;22.860;2023-03-11T15:49:24;7.10;;;3.22;;
42384;SDS011;28042;43.986;22.860;2023-03-11T15:51:50;6.03;;;3.03;;
42384;SDS011;28042;43.986;22.860;2023-03-11T15:54:15;10.45;;;4.40;;
42384;SDS011;28042;43.986;22.860;2023-03-11T15:56:41;9.95;;;3.58;;
42384;SDS011;28042;43.986;22.860;2023-03-11T15:59:09;6.78;;;3.13;;
42384;SDS011;28042;43.986;22.860;2023-03-11T16:01:38;22.45;;;4.32;;
42384;SDS011;28042;43.986;22.860;2023-03-11T16:04:04;10.63;;;3.45;;
42384;SDS011;28042;43.986;22.860;2023-03-11T16:06:35;7.47;;;3.13;;
42384;SDS011;28042;43.986;22.860;2023-03-11T16:09:01;5.20;;;2.45;;
42384;SDS011;28042;43.986;22.860;2023-03-11T16:11:27;2.67;;;1.10;;
42384;SDS011;28042;43.986;22.860;2023-03-11T16:13:56;3.67;;;2.25;;
42384;SDS011;28042;43.986;22.860;2023-03-11T16:16:22;1.33;;;0.93;;
42384;SDS011;28042;43.986;22.860;2023-03-11T16:18:47;4.40;;;1.48;;
42384;SDS011;28042;43.986;22.860;2023-03-11T16:21:14;4.15;;;1.23;;
42384;SDS011;28042;43.986;22.860;2023-03-11T16:23:42;3.72;;;1.27;;
42384;SDS011;28042;43.986;22.860;2023-03-11T16:26:08;6.45;;;4.60;;
42384;SDS011;28042;43.986;22.860;2023-03-11T16:28:35;185.13;;;117.35;;
42384;SDS011;28042;43.986;22.860;2023-03-11T16:31:00;63.45;;;48.67;;
42384;SDS011;28042;43.986;22.860;2023-03-11T16:33:26;5.07;;;1.30;;
42384;SDS011;28042;43.986;22.860;2023-03-11T16:35:51;4.97;;;1.00;;
42384;SDS011;28042;43.986;22.860;2023-03-11T16:38:17;6.63;;;1.90;;
42384;SDS011;28042;43.986;22.860;2023-03-11T16:40:43;9.25;;;2.10;;
42384;SDS011;28042;43.986;22.860;2023-03-11T16:43:10;6.13;;;2.10;;
42384;SDS011;28042;43.986;22.860;2023-03-11T16:45:37;2.85;;;1.60;;